Lenore, Idaho
Current Conditions -  °F | °C
As of 4:56 PM on Thursday 27 Nov 2014 (Local Time) from KLWS Reporting Station
Overcast Overcast  
Wind Chill: 59°   Ceiling: 10000
Heat Index: 59°   Visibility: 10mi
Dew Point: 45°   Wind: 20mph
Humidity: 60%   Direction: 200°SSW
Pressure: 29.85"   Gusts: NA
Location:  46.51°N, 116.55°W
Report Text: KLWS 280056Z 20017KT 10SM SCT060 OVC100 15/07 A2985 RMK AO2 PK WND 20029/2357 SLP108 T01500072
Loading
Personal Weather Stations






























Interactive Weather Map New forecast layout! Learn more

10-Day Weather Forecast

Advertisements
Track Severe Weather on mobile